createdAt,value
2023-04-25T00:02:41.093Z,10.90
2023-04-25T00:05:27.740Z,11.00
2023-04-25T00:08:13.096Z,11.00
2023-04-25T00:10:58.813Z,10.90
2023-04-25T00:13:44.192Z,11.00
2023-04-25T00:16:31.712Z,10.90
2023-04-25T00:19:17.198Z,10.90
2023-04-25T00:22:03.278Z,11.00
2023-04-25T00:24:48.852Z,10.70
2023-04-25T00:27:34.443Z,10.70
2023-04-25T00:30:19.841Z,10.70
2023-04-25T00:33:05.376Z,10.70
2023-04-25T00:35:50.767Z,10.70
2023-04-25T00:38:36.152Z,10.70
2023-04-25T00:41:21.675Z,10.70
2023-04-25T00:44:08.529Z,10.70
2023-04-25T00:46:54.987Z,10.70
2023-04-25T00:49:40.370Z,10.70
2023-04-25T00:52:26.214Z,10.70
2023-04-25T00:55:12.357Z,10.80
2023-04-25T00:57:58.205Z,10.80
2023-04-25T01:00:43.558Z,10.80
2023-04-25T01:03:30.657Z,10.70
2023-04-25T01:06:17.290Z,10.70
2023-04-25T01:09:03.694Z,10.60
2023-04-25T01:11:50.145Z,10.70
2023-04-25T01:14:35.427Z,10.60
2023-04-25T01:17:22.100Z,10.60
2023-04-25T01:20:08.498Z,10.60
2023-04-25T01:22:53.941Z,10.60
2023-04-25T01:25:40.179Z,10.60
2023-04-25T01:28:25.629Z,10.50
2023-04-25T01:31:12.357Z,10.50
2023-04-25T01:33:57.979Z,10.50
2023-04-25T01:36:43.174Z,10.50
2023-04-25T01:39:28.917Z,10.60
2023-04-25T01:42:14.288Z,10.60
2023-04-25T01:45:00.311Z,10.70
2023-04-25T01:47:49.899Z,10.60
2023-04-25T01:50:35.411Z,10.50
2023-04-25T01:53:20.667Z,10.50
2023-04-25T01:56:06.383Z,10.50
2023-04-25T01:58:52.473Z,10.60
2023-04-25T02:01:37.801Z,10.70
2023-04-25T02:04:23.132Z,10.60
2023-04-25T02:07:08.352Z,10.60
2023-04-25T02:09:53.816Z,10.50
2023-04-25T02:12:39.102Z,10.60
2023-04-25T02:15:24.553Z,10.60
2023-04-25T02:18:11.501Z,10.60
2023-04-25T02:20:56.960Z,10.60
2023-04-25T02:23:42.378Z,10.70
2023-04-25T02:26:27.889Z,10.70
2023-04-25T02:29:13.562Z,10.60
2023-04-25T02:31:58.705Z,10.60
2023-04-25T02:34:44.090Z,10.60
2023-04-25T02:37:29.457Z,10.50
2023-04-25T02:40:14.923Z,10.50
2023-04-25T02:43:00.255Z,10.60
2023-04-25T02:45:45.704Z,10.60
2023-04-25T02:48:31.155Z,10.70
2023-04-25T02:51:17.440Z,10.70
2023-04-25T02:54:02.905Z,10.60
2023-04-25T02:56:48.294Z,10.60
2023-04-25T02:59:34.184Z,10.70
2023-04-25T03:02:19.474Z,10.70
2023-04-25T03:05:05.034Z,10.80
2023-04-25T03:07:50.507Z,10.80
2023-04-25T03:10:36.042Z,10.70
2023-04-25T03:13:21.398Z,10.70
2023-04-25T03:16:06.989Z,10.70
2023-04-25T03:18:52.488Z,10.60
2023-04-25T03:21:37.944Z,10.60
2023-04-25T03:24:23.161Z,10.60
2023-04-25T03:27:08.488Z,10.40
2023-04-25T03:29:53.873Z,10.50
2023-04-25T03:32:39.304Z,10.50
2023-04-25T03:35:25.946Z,10.60
2023-04-25T03:38:11.608Z,10.50
2023-04-25T03:40:58.175Z,10.60
2023-04-25T03:43:43.517Z,10.60
2023-04-25T03:46:29.010Z,10.50
2023-04-25T03:49:17.041Z,10.60
2023-04-25T03:52:04.367Z,10.60
2023-04-25T03:54:49.667Z,10.50
2023-04-25T03:57:34.930Z,10.50
2023-04-25T04:00:20.382Z,10.50
2023-04-25T04:03:06.197Z,10.30
2023-04-25T04:05:51.543Z,10.20
2023-04-25T04:08:36.893Z,10.20
2023-04-25T04:11:22.298Z,10.20
2023-04-25T04:14:08.413Z,10.30
2023-04-25T04:16:53.740Z,10.20
2023-04-25T04:19:39.202Z,10.10
2023-04-25T04:22:25.377Z,10.00
2023-04-25T04:25:12.607Z,10.10
2023-04-25T04:27:58.231Z,10.20
2023-04-25T04:30:46.937Z,10.30
2023-04-25T04:33:32.502Z,10.30
2023-04-25T04:36:20.753Z,10.20
2023-04-25T04:39:07.419Z,10.10
2023-04-25T04:41:54.516Z,10.10
2023-04-25T04:44:40.074Z,10.10
2023-04-25T04:47:26.923Z,10.20
2023-04-25T04:50:12.442Z,10.20
2023-04-25T04:52:57.753Z,10.10
2023-04-25T04:55:43.830Z,10.10
2023-04-25T04:58:30.738Z,10.10
2023-04-25T05:01:17.112Z,10.00
2023-04-25T05:04:03.788Z,10.10
2023-04-25T05:06:49.597Z,10.10
2023-04-25T05:09:35.034Z,10.00
2023-04-25T05:12:20.617Z,9.80
2023-04-25T05:15:06.540Z,9.90
2023-04-25T05:17:52.013Z,9.80
2023-04-25T05:20:37.430Z,9.80
2023-04-25T05:23:22.587Z,9.70
2023-04-25T05:26:14.497Z,9.70
2023-04-25T05:29:00.738Z,9.80
2023-04-25T05:31:46.326Z,9.90
2023-04-25T05:34:31.713Z,9.90
2023-04-25T05:37:16.961Z,10.00
2023-04-25T05:40:05.357Z,10.10
2023-04-25T05:42:50.609Z,10.20
2023-04-25T05:45:36.181Z,10.20
2023-04-25T05:48:21.376Z,10.00
2023-04-25T05:51:06.799Z,9.90
2023-04-25T05:53:52.686Z,9.90
2023-04-25T05:56:38.192Z,9.80
2023-04-25T05:59:23.541Z,9.90
2023-04-25T06:02:09.068Z,9.80
2023-04-25T06:04:54.529Z,9.80
2023-04-25T06:07:40.416Z,9.90
2023-04-25T06:10:25.814Z,10.00
2023-04-25T06:13:11.264Z,10.00
2023-04-25T06:15:56.734Z,10.10
2023-04-25T06:18:41.910Z,10.00
2023-04-25T06:21:28.416Z,10.10
2023-04-25T06:24:13.771Z,10.10
2023-04-25T06:27:02.297Z,10.10
2023-04-25T06:29:47.400Z,10.30
2023-04-25T06:32:33.418Z,10.30
2023-04-25T06:35:18.628Z,10.30
2023-04-25T06:38:04.132Z,10.30
2023-04-25T06:40:49.511Z,10.20
2023-04-25T06:43:35.089Z,10.30
2023-04-25T06:46:20.757Z,10.40
2023-04-25T06:49:06.356Z,10.40
2023-04-25T06:51:51.637Z,10.50
2023-04-25T06:54:36.793Z,10.60
2023-04-25T06:57:22.172Z,10.60
2023-04-25T07:00:10.419Z,10.70
2023-04-25T07:02:55.662Z,10.70
2023-04-25T07:05:41.195Z,10.80
2023-04-25T07:08:26.149Z,11.00
2023-04-25T07:11:11.577Z,11.00
2023-04-25T07:13:56.996Z,11.10
2023-04-25T07:16:42.879Z,11.00
2023-04-25T07:19:30.704Z,11.10
2023-04-25T07:22:16.082Z,11.20
2023-04-25T07:25:01.524Z,11.40
2023-04-25T07:27:47.082Z,11.50
2023-04-25T07:30:32.511Z,11.50
2023-04-25T07:33:18.281Z,11.40
2023-04-25T07:36:03.627Z,11.30
2023-04-25T07:38:49.072Z,11.30
2023-04-25T07:41:34.425Z,11.20
2023-04-25T07:44:19.806Z,11.10
2023-04-25T07:47:08.036Z,11.10
2023-04-25T07:49:53.399Z,11.40
2023-04-25T07:52:38.728Z,11.40
2023-04-25T07:55:24.202Z,11.30
2023-04-25T07:58:11.385Z,11.20
2023-04-25T08:00:56.668Z,11.20
2023-04-25T08:03:42.413Z,11.20
2023-04-25T08:06:28.425Z,11.20
2023-04-25T08:09:13.837Z,11.30
2023-04-25T08:11:59.127Z,11.30
2023-04-25T08:14:44.467Z,11.30
2023-04-25T08:17:29.781Z,11.30
2023-04-25T08:20:15.234Z,11.30
2023-04-25T08:23:00.641Z,11.40
2023-04-25T08:25:45.945Z,11.20
2023-04-25T08:28:31.632Z,11.20
2023-04-25T08:31:17.566Z,11.20
2023-04-25T08:34:02.640Z,11.40
2023-04-25T08:36:48.039Z,11.50
2023-04-25T08:39:33.479Z,11.70
2023-04-25T08:42:19.155Z,11.90
2023-04-25T08:45:07.144Z,12.30
2023-04-25T08:47:53.991Z,12.30
2023-04-25T08:50:56.034Z,12.40
2023-04-25T08:53:43.828Z,12.40
2023-04-25T08:56:31.000Z,12.20
2023-04-25T08:59:16.474Z,12.00
2023-04-25T09:02:02.253Z,11.90
2023-04-25T09:04:47.660Z,11.70
2023-04-25T09:07:33.516Z,11.80
2023-04-25T09:10:18.850Z,11.70
2023-04-25T09:13:09.719Z,11.60
2023-04-25T09:15:56.845Z,11.60
2023-04-25T09:18:48.357Z,11.60
2023-04-25T09:21:35.869Z,11.80
2023-04-25T09:24:41.606Z,11.80
2023-04-25T09:27:27.914Z,11.90
2023-04-25T09:30:16.704Z,11.90
2023-04-25T09:33:09.628Z,11.90
2023-04-25T09:35:56.709Z,12.00
2023-04-25T09:38:46.968Z,11.90
2023-04-25T09:41:32.000Z,11.90
2023-04-25T09:44:25.203Z,12.00
2023-04-25T09:47:13.497Z,12.00
2023-04-25T09:49:59.398Z,12.40
2023-04-25T09:52:44.456Z,12.80
2023-04-25T09:55:30.260Z,13.20
2023-04-25T09:58:16.271Z,13.70
2023-04-25T10:01:03.786Z,14.00
2023-04-25T10:03:51.572Z,14.20
2023-04-25T10:06:38.516Z,14.30
2023-04-25T10:09:27.219Z,13.90
2023-04-25T10:12:12.483Z,13.80
2023-04-25T10:14:59.172Z,13.50
2023-04-25T10:17:45.270Z,13.40
2023-04-25T10:20:31.210Z,13.70
2023-04-25T10:23:17.925Z,14.00
2023-04-25T10:26:03.404Z,14.00
2023-04-25T10:29:04.686Z,14.00
2023-04-25T10:31:49.953Z,13.70
2023-04-25T10:34:43.506Z,13.80
2023-04-25T10:37:28.732Z,14.10
2023-04-25T10:40:14.809Z,14.10
2023-04-25T10:43:32.203Z,13.90
2023-04-25T10:46:28.563Z,13.80
2023-04-25T10:49:29.976Z,14.40
2023-04-25T10:52:16.883Z,15.00
2023-04-25T10:55:04.611Z,15.20
2023-04-25T10:57:50.918Z,14.70
2023-04-25T11:00:48.197Z,14.70
2023-04-25T11:03:46.676Z,15.00
2023-04-25T11:06:53.811Z,15.60
2023-04-25T11:09:42.069Z,15.90
2023-04-25T11:12:27.517Z,15.70
2023-04-25T11:15:12.796Z,15.60
2023-04-25T11:17:58.129Z,15.90
2023-04-25T11:20:44.513Z,16.30
2023-04-25T11:23:31.287Z,16.00
2023-04-25T11:26:17.338Z,15.90
2023-04-25T11:29:02.753Z,15.40
2023-04-25T11:31:48.060Z,15.60
2023-04-25T11:34:34.532Z,15.80
2023-04-25T11:37:19.904Z,16.10
2023-04-25T11:40:07.470Z,16.50
2023-04-25T11:42:55.222Z,16.70
2023-04-25T11:45:41.036Z,17.10
2023-04-25T11:48:26.662Z,17.20
2023-04-25T11:51:12.851Z,17.00
2023-04-25T11:53:57.937Z,16.70
2023-04-25T11:56:47.407Z,16.30
2023-04-25T11:59:32.557Z,16.30
2023-04-25T12:02:27.791Z,16.00
2023-04-25T12:05:30.416Z,15.50
2023-04-25T12:08:18.026Z,15.30
2023-04-25T12:11:03.655Z,15.20
2023-04-25T12:13:54.208Z,15.40
2023-04-25T12:16:44.501Z,15.40
2023-04-25T12:19:35.498Z,15.10
2023-04-25T12:22:22.644Z,15.60
2023-04-25T12:25:08.670Z,15.50
2023-04-25T12:27:54.106Z,15.70
2023-04-25T12:31:04.165Z,16.30
2023-04-25T12:33:49.668Z,16.80
2023-04-25T12:36:35.154Z,17.20
2023-04-25T12:39:26.008Z,17.60
2023-04-25T12:42:14.019Z,17.40
2023-04-25T12:44:59.190Z,17.30
2023-04-25T12:47:44.726Z,17.30
2023-04-25T12:50:29.784Z,17.30
2023-04-25T12:53:15.639Z,17.10
2023-04-25T12:56:01.237Z,16.90
2023-04-25T12:58:47.424Z,17.20
2023-04-25T13:01:34.716Z,17.80
2023-04-25T13:04:22.553Z,17.50
2023-04-25T13:07:08.238Z,16.60
2023-04-25T13:09:53.670Z,16.30
2023-04-25T13:12:39.048Z,16.40
2023-04-25T13:15:24.504Z,16.90
2023-04-25T13:18:09.856Z,17.00
2023-04-25T13:20:55.657Z,17.30
2023-04-25T13:23:42.738Z,17.30
2023-04-25T13:26:28.306Z,17.30
2023-04-25T13:29:14.419Z,16.40
2023-04-25T13:31:59.420Z,16.00
2023-04-25T13:34:44.820Z,16.00
2023-04-25T13:37:31.824Z,16.00
2023-04-25T13:40:16.956Z,16.10
2023-04-25T13:43:03.093Z,16.80
2023-04-25T13:45:49.625Z,17.30
2023-04-25T13:48:35.078Z,17.20
2023-04-25T13:51:21.566Z,17.20
2023-04-25T13:54:06.615Z,17.10
2023-04-25T13:56:52.870Z,16.90
2023-04-25T13:59:39.113Z,16.70
2023-04-25T14:02:24.582Z,16.60
2023-04-25T14:05:10.503Z,16.60
2023-04-25T14:07:56.316Z,16.30
2023-04-25T14:10:41.714Z,16.20
2023-04-25T14:13:27.458Z,16.10
2023-04-25T14:16:12.610Z,15.90
2023-04-25T14:18:58.879Z,15.80
2023-04-25T14:21:44.542Z,15.60
2023-04-25T14:24:30.031Z,15.50
2023-04-25T14:27:15.447Z,15.10
2023-04-25T14:30:00.936Z,15.00
2023-04-25T14:32:47.152Z,15.00
2023-04-25T14:35:32.393Z,14.90
2023-04-25T14:38:18.087Z,14.80
2023-04-25T14:41:03.281Z,14.40
2023-04-25T14:43:48.812Z,14.20
2023-04-25T14:46:34.920Z,14.20
2023-04-25T14:49:20.497Z,13.90
2023-04-25T14:52:05.999Z,14.00
2023-04-25T14:54:51.236Z,14.10
2023-04-25T14:57:36.655Z,14.00
2023-04-25T15:00:23.031Z,14.00
2023-04-25T15:03:08.617Z,13.50
2023-04-25T15:05:56.265Z,13.40
2023-04-25T15:08:41.709Z,13.50
2023-04-25T15:11:27.032Z,13.50
2023-04-25T15:14:12.509Z,13.60
2023-04-25T15:16:57.927Z,14.00
2023-04-25T15:19:43.440Z,14.20
2023-04-25T15:22:29.205Z,14.40
2023-04-25T15:25:14.267Z,14.50
2023-04-25T15:28:00.941Z,14.70
2023-04-25T15:30:46.278Z,14.80
2023-04-25T15:33:32.025Z,14.60
2023-04-25T15:36:19.320Z,14.60
2023-04-25T15:39:05.281Z,14.60
2023-04-25T15:41:50.287Z,14.70
2023-04-25T15:44:35.718Z,15.00
2023-04-25T15:47:21.164Z,15.00
2023-04-25T15:50:09.427Z,14.80
2023-04-25T15:52:54.821Z,14.40
2023-04-25T15:55:40.296Z,14.30
2023-04-25T15:58:27.462Z,14.20
2023-04-25T16:01:13.046Z,14.30
2023-04-25T16:06:44.834Z,13.90
2023-04-25T16:09:31.853Z,13.80
2023-04-25T16:12:17.959Z,13.60
2023-04-25T16:15:04.352Z,13.40
2023-04-25T16:17:49.536Z,13.50
2023-04-25T16:20:34.776Z,13.60
2023-04-25T16:23:20.303Z,13.60
2023-04-25T16:26:05.858Z,13.70
2023-04-25T16:28:51.213Z,13.60
2023-04-25T16:31:36.944Z,13.50
2023-04-25T16:34:23.424Z,13.50
2023-04-25T16:37:10.513Z,13.40
2023-04-25T16:43:14.008Z,13.30
2023-04-25T16:45:59.855Z,13.40
2023-04-25T16:48:51.261Z,13.30
2023-04-25T16:51:36.736Z,13.20
2023-04-25T16:54:22.011Z,12.90
2023-04-25T16:57:10.387Z,12.80
2023-04-25T16:59:56.611Z,12.60
2023-04-25T17:02:42.283Z,12.60
2023-04-25T17:05:27.472Z,12.50
2023-04-25T17:08:13.053Z,12.50
2023-04-25T17:10:59.823Z,12.30
2023-04-25T17:13:45.911Z,12.30
2023-04-25T17:16:38.501Z,12.30
2023-04-25T17:19:24.208Z,12.20
2023-04-25T17:22:09.485Z,12.10
2023-04-25T17:24:54.836Z,12.20
2023-04-25T17:27:40.072Z,12.20
2023-04-25T17:30:26.733Z,12.10
2023-04-25T17:33:11.912Z,12.00
2023-04-25T17:35:57.279Z,12.10
2023-04-25T17:38:42.801Z,12.20
2023-04-25T17:41:28.220Z,12.10
2023-04-25T17:44:13.686Z,12.30
2023-04-25T17:47:01.115Z,12.40
2023-04-25T17:49:46.394Z,12.40
2023-04-25T17:52:31.920Z,12.50
2023-04-25T17:55:17.161Z,12.50
2023-04-25T17:58:02.629Z,12.60
2023-04-25T18:00:48.155Z,12.60
2023-04-25T18:03:33.696Z,12.70
2023-04-25T18:06:19.168Z,12.70
2023-04-25T18:09:15.827Z,12.70
2023-04-25T18:12:02.105Z,12.70
2023-04-25T18:14:47.544Z,12.70
2023-04-25T18:17:42.583Z,12.80
2023-04-25T18:20:28.580Z,12.80
2023-04-25T18:23:14.006Z,12.70
2023-04-25T18:25:59.283Z,12.70
2023-04-25T18:28:44.707Z,12.60
2023-04-25T18:31:32.090Z,12.60
2023-04-25T18:34:20.319Z,12.60
2023-04-25T18:37:05.575Z,12.80
2023-04-25T18:39:51.941Z,12.80
2023-04-25T18:42:37.930Z,12.70
2023-04-25T18:45:23.018Z,12.70
2023-04-25T18:48:08.341Z,12.70
2023-04-25T18:50:53.786Z,12.60
2023-04-25T18:53:39.300Z,12.60
2023-04-25T18:56:25.667Z,12.60
2023-04-25T18:59:11.334Z,12.50
2023-04-25T19:01:56.428Z,12.50
2023-04-25T19:04:42.819Z,12.40
2023-04-25T19:07:30.735Z,12.40
2023-04-25T19:10:16.193Z,12.40
2023-04-25T19:13:01.637Z,12.40
2023-04-25T19:15:48.152Z,12.50
2023-04-25T19:18:33.512Z,12.50
2023-04-25T19:21:19.108Z,12.40
2023-04-25T19:24:05.337Z,12.40
2023-04-25T19:26:50.683Z,12.40
2023-04-25T19:29:36.300Z,12.40
2023-04-25T19:32:21.686Z,12.40
2023-04-25T19:35:10.915Z,12.40
2023-04-25T19:37:56.938Z,12.30
2023-04-25T19:40:42.937Z,12.30
2023-04-25T19:43:29.652Z,12.30
2023-04-25T19:46:15.358Z,12.20
2023-04-25T19:49:01.488Z,12.20
2023-04-25T19:51:46.752Z,12.20
2023-04-25T19:54:32.799Z,12.30
2023-04-25T19:57:18.330Z,12.20
2023-04-25T20:00:10.642Z,12.10
2023-04-25T20:02:56.493Z,12.10
2023-04-25T20:05:41.778Z,12.00
2023-04-25T20:08:27.272Z,12.00
2023-04-25T20:11:12.457Z,12.00
2023-04-25T20:13:57.793Z,12.00
2023-04-25T20:16:43.256Z,12.00
2023-04-25T20:19:28.472Z,12.00
2023-04-25T20:22:13.947Z,12.00
2023-04-25T20:24:59.305Z,12.10
2023-04-25T20:27:45.340Z,12.10
2023-04-25T20:30:32.079Z,12.00
2023-04-25T20:33:17.219Z,12.00
2023-04-25T20:36:02.767Z,12.00
2023-04-25T20:38:48.058Z,11.90
2023-04-25T20:41:33.922Z,11.90
2023-04-25T20:44:22.759Z,11.80
2023-04-25T20:47:09.522Z,11.90
2023-04-25T20:49:55.441Z,11.80
2023-04-25T20:52:41.833Z,11.70
2023-04-25T20:55:27.791Z,11.70
2023-04-25T20:58:13.124Z,11.60
2023-04-25T21:00:58.991Z,11.60
2023-04-25T21:03:47.415Z,11.50
2023-04-25T21:06:34.526Z,11.50
2023-04-25T21:09:19.869Z,11.50
2023-04-25T21:12:05.674Z,11.40
2023-04-25T21:14:51.383Z,11.40
2023-04-25T21:17:36.676Z,11.30
2023-04-25T21:20:22.131Z,11.20
2023-04-25T21:23:07.720Z,11.20
2023-04-25T21:25:54.181Z,11.10
2023-04-25T21:28:39.494Z,11.00
2023-04-25T21:31:24.881Z,11.00
2023-04-25T21:34:10.437Z,10.90
2023-04-25T21:36:56.401Z,11.00
2023-04-25T21:39:41.683Z,11.10
2023-04-25T21:42:26.989Z,11.10
2023-04-25T21:45:12.884Z,11.00
2023-04-25T21:47:58.468Z,11.00
2023-04-25T21:50:44.113Z,10.90
2023-04-25T21:53:29.436Z,11.00
2023-04-25T21:56:14.853Z,10.90
2023-04-25T21:59:00.229Z,10.90
2023-04-25T22:01:46.466Z,10.80
2023-04-25T22:04:31.553Z,10.80
2023-04-25T22:07:17.015Z,10.80
2023-04-25T22:10:02.231Z,10.70
2023-04-25T22:12:50.822Z,11.10
2023-04-25T22:15:36.362Z,10.60
2023-04-25T22:18:22.213Z,10.50
2023-04-25T22:21:08.582Z,10.30
2023-04-25T22:23:54.148Z,10.30
2023-04-25T22:26:39.242Z,10.20
2023-04-25T22:29:24.561Z,10.30
2023-04-25T22:32:09.955Z,10.30
2023-04-25T22:34:55.539Z,10.20
2023-04-25T22:37:41.676Z,10.20
2023-04-25T22:40:26.801Z,10.20
2023-04-25T22:43:12.251Z,10.20
2023-04-25T22:45:58.907Z,10.20
2023-04-25T22:48:44.852Z,10.20
2023-04-25T22:51:31.024Z,10.10
2023-04-25T22:54:16.385Z,10.20
2023-04-25T22:57:01.705Z,10.10
2023-04-25T22:59:47.139Z,10.10
2023-04-25T23:02:32.670Z,10.10
2023-04-25T23:05:18.204Z,10.10
2023-04-25T23:08:03.882Z,10.00
2023-04-25T23:10:49.157Z,10.10
2023-04-25T23:13:37.594Z,9.90
2023-04-25T23:16:22.750Z,9.90
2023-04-25T23:19:08.159Z,9.90
2023-04-25T23:21:54.292Z,10.00
2023-04-25T23:24:39.376Z,9.90
2023-04-25T23:27:24.800Z,9.90
2023-04-25T23:30:10.677Z,9.80
2023-04-25T23:32:56.324Z,9.80
2023-04-25T23:35:41.721Z,9.80
2023-04-25T23:38:27.823Z,9.70
2023-04-25T23:41:13.270Z,9.60
2023-04-25T23:43:58.630Z,9.50
2023-04-25T23:46:44.125Z,9.50
2023-04-25T23:49:29.533Z,9.60
2023-04-25T23:52:14.889Z,9.40
2023-04-25T23:55:00.255Z,9.50
2023-04-25T23:57:45.528Z,9.50
